sensor_id;sensor_type;location;lat;lon;timestamp;pressure;altitude;pressure_sealevel;temperature;humidity
69842;BME280;57138;51.326;-0.068;2022-11-13T00:01:33;100626.66;;;11.37;99.88
69842;BME280;57138;51.326;-0.068;2022-11-13T00:03:58;100628.59;;;11.43;100.00
69842;BME280;57138;51.326;-0.068;2022-11-13T00:06:24;100627.59;;;11.44;100.00
69842;BME280;57138;51.326;-0.068;2022-11-13T00:08:53;100628.41;;;11.45;100.00
69842;BME280;57138;51.326;-0.068;2022-11-13T00:11:19;100620.56;;;11.43;100.00
69842;BME280;57138;51.326;-0.068;2022-11-13T00:13:46;100618.72;;;11.44;100.00
69842;BME280;57138;51.326;-0.068;2022-11-13T00:16:17;100625.00;;;11.51;100.00
69842;BME280;57138;51.326;-0.068;2022-11-13T00:18:43;100615.13;;;11.51;100.00
69842;BME280;57138;51.326;-0.068;2022-11-13T00:21:23;100605.91;;;11.39;100.00
69842;BME280;57138;51.326;-0.068;2022-11-13T00:23:52;100619.44;;;11.52;100.00
69842;BME280;57138;51.326;-0.068;2022-11-13T00:26:23;100600.81;;;11.44;100.00
69842;BME280;57138;51.326;-0.068;2022-11-13T00:28:53;100608.91;;;11.51;99.89
69842;BME280;57138;51.326;-0.068;2022-11-13T00:31:19;100606.81;;;11.46;100.00
69842;BME280;57138;51.326;-0.068;2022-11-13T00:33:44;100611.69;;;11.43;99.89
69842;BME280;57138;51.326;-0.068;2022-11-13T00:36:14;100614.00;;;11.46;99.88
69842;BME280;57138;51.326;-0.068;2022-11-13T00:38:40;100609.22;;;11.41;100.00
69842;BME280;57138;51.326;-0.068;2022-11-13T00:41:06;100612.88;;;11.40;99.94
69842;BME280;57138;51.326;-0.068;2022-11-13T00:43:33;100615.00;;;11.45;100.00
69842;BME280;57138;51.326;-0.068;2022-11-13T00:45:59;100612.72;;;11.42;100.00
69842;BME280;57138;51.326;-0.068;2022-11-13T00:48:24;100602.19;;;11.40;100.00
69842;BME280;57138;51.326;-0.068;2022-11-13T00:50:50;100605.72;;;11.41;100.00
69842;BME280;57138;51.326;-0.068;2022-11-13T00:53:18;100597.19;;;11.37;100.00
69842;BME280;57138;51.326;-0.068;2022-11-13T00:55:44;100596.38;;;11.37;100.00
69842;BME280;57138;51.326;-0.068;2022-11-13T00:58:11;100601.91;;;11.35;100.00
69842;BME280;57138;51.326;-0.068;2022-11-13T01:00:38;100594.25;;;11.32;100.00
69842;BME280;57138;51.326;-0.068;2022-11-13T01:03:04;100593.88;;;11.35;100.00
69842;BME280;57138;51.326;-0.068;2022-11-13T01:05:30;100577.38;;;11.31;100.00
69842;BME280;57138;51.326;-0.068;2022-11-13T01:07:58;100583.53;;;11.32;100.00
69842;BME280;57138;51.326;-0.068;2022-11-13T01:10:24;100581.88;;;11.31;100.00
69842;BME280;57138;51.326;-0.068;2022-11-13T01:12:52;100575.50;;;11.32;100.00
69842;BME280;57138;51.326;-0.068;2022-11-13T01:15:18;100591.56;;;11.32;100.00
69842;BME280;57138;51.326;-0.068;2022-11-13T01:17:44;100573.56;;;11.26;100.00
69842;BME280;57138;51.326;-0.068;2022-11-13T01:20:10;100584.28;;;11.26;100.00
69842;BME280;57138;51.326;-0.068;2022-11-13T01:22:35;100582.59;;;11.25;100.00
69842;BME280;57138;51.326;-0.068;2022-11-13T01:25:01;100582.59;;;11.25;100.00
69842;BME280;57138;51.326;-0.068;2022-11-13T01:27:26;100571.44;;;11.21;100.00
69842;BME280;57138;51.326;-0.068;2022-11-13T01:29:52;100579.94;;;11.25;100.00
69842;BME280;57138;51.326;-0.068;2022-11-13T01:32:17;100580.59;;;11.27;100.00
69842;BME280;57138;51.326;-0.068;2022-11-13T01:34:43;100583.09;;;11.28;100.00
69842;BME280;57138;51.326;-0.068;2022-11-13T01:37:08;100579.75;;;11.26;100.00
69842;BME280;57138;51.326;-0.068;2022-11-13T01:39:34;100585.28;;;11.25;100.00
69842;BME280;57138;51.326;-0.068;2022-11-13T01:42:00;100583.34;;;11.19;100.00
69842;BME280;57138;51.326;-0.068;2022-11-13T01:44:46;100570.06;;;11.10;100.00
69842;BME280;57138;51.326;-0.068;2022-11-13T01:47:11;100578.34;;;11.15;100.00
69842;BME280;57138;51.326;-0.068;2022-11-13T01:49:39;100574.03;;;11.14;100.00
69842;BME280;57138;51.326;-0.068;2022-11-13T01:52:18;100572.53;;;11.12;100.00
69842;BME280;57138;51.326;-0.068;2022-11-13T01:54:56;100568.38;;;11.09;100.00
69842;BME280;57138;51.326;-0.068;2022-11-13T01:57:23;100563.88;;;11.10;100.00
69842;BME280;57138;51.326;-0.068;2022-11-13T01:59:52;100565.06;;;11.07;100.00
69842;BME280;57138;51.326;-0.068;2022-11-13T02:02:19;100567.38;;;11.10;100.00
69842;BME280;57138;51.326;-0.068;2022-11-13T02:04:45;100564.06;;;11.08;100.00
69842;BME280;57138;51.326;-0.068;2022-11-13T02:07:17;100553.44;;;11.00;100.00
69842;BME280;57138;51.326;-0.068;2022-11-13T02:09:48;100552.25;;;11.03;100.00
69842;BME280;57138;51.326;-0.068;2022-11-13T02:12:27;100553.91;;;11.04;100.00
69842;BME280;57138;51.326;-0.068;2022-11-13T02:14:55;100545.25;;;11.02;100.00
69842;BME280;57138;51.326;-0.068;2022-11-13T02:17:27;100541.06;;;10.99;100.00
69842;BME280;57138;51.326;-0.068;2022-11-13T02:19:59;100532.03;;;11.00;100.00
69842;BME280;57138;51.326;-0.068;2022-11-13T02:22:31;100535.72;;;10.99;100.00
69842;BME280;57138;51.326;-0.068;2022-11-13T02:24:59;100521.22;;;10.93;100.00
69842;BME280;57138;51.326;-0.068;2022-11-13T02:27:52;100530.38;;;10.99;100.00
69842;BME280;57138;51.326;-0.068;2022-11-13T02:32:48;100524.94;;;10.92;100.00
69842;BME280;57138;51.326;-0.068;2022-11-13T02:35:28;100524.56;;;10.95;100.00
69842;BME280;57138;51.326;-0.068;2022-11-13T02:37:57;100512.38;;;10.93;100.00
69842;BME280;57138;51.326;-0.068;2022-11-13T02:40:23;100515.06;;;10.93;100.00
69842;BME280;57138;51.326;-0.068;2022-11-13T02:42:49;100509.72;;;10.93;100.00
69842;BME280;57138;51.326;-0.068;2022-11-13T02:45:15;100501.41;;;10.88;100.00
69842;BME280;57138;51.326;-0.068;2022-11-13T02:47:40;100505.72;;;10.89;100.00
69842;BME280;57138;51.326;-0.068;2022-11-13T02:50:06;100498.44;;;10.83;100.00
69842;BME280;57138;51.326;-0.068;2022-11-13T02:52:32;100494.13;;;10.82;100.00
69842;BME280;57138;51.326;-0.068;2022-11-13T02:54:57;100501.09;;;10.83;100.00
69842;BME280;57138;51.326;-0.068;2022-11-13T02:57:22;100502.13;;;10.82;100.00
69842;BME280;57138;51.326;-0.068;2022-11-13T02:59:48;100493.81;;;10.76;100.00
69842;BME280;57138;51.326;-0.068;2022-11-13T03:02:13;100494.84;;;10.75;100.00
69842;BME280;57138;51.326;-0.068;2022-11-13T03:04:39;100491.50;;;10.73;100.00
69842;BME280;57138;51.326;-0.068;2022-11-13T03:07:04;100484.22;;;10.67;100.00
69842;BME280;57138;51.326;-0.068;2022-11-13T03:09:30;100498.88;;;10.71;100.00
69842;BME280;57138;51.326;-0.068;2022-11-13T03:11:55;100479.03;;;10.66;100.00
69842;BME280;57138;51.326;-0.068;2022-11-13T03:14:20;100492.91;;;10.69;100.00
69842;BME280;57138;51.326;-0.068;2022-11-13T03:16:46;100493.25;;;10.66;100.00
69842;BME280;57138;51.326;-0.068;2022-11-13T03:19:11;100494.28;;;10.65;100.00
69842;BME280;57138;51.326;-0.068;2022-11-13T03:21:37;100498.78;;;10.65;100.00
69842;BME280;57138;51.326;-0.068;2022-11-13T03:24:02;100485.78;;;10.61;100.00
69842;BME280;57138;51.326;-0.068;2022-11-13T03:26:27;100490.28;;;10.61;100.00
69842;BME280;57138;51.326;-0.068;2022-11-13T03:28:53;100508.00;;;10.62;100.00
69842;BME280;57138;51.326;-0.068;2022-11-13T03:31:19;100501.34;;;10.58;100.00
69842;BME280;57138;51.326;-0.068;2022-11-13T03:33:44;100507.06;;;10.55;100.00
69842;BME280;57138;51.326;-0.068;2022-11-13T03:36:10;100509.09;;;10.53;100.00
69842;BME280;57138;51.326;-0.068;2022-11-13T03:38:35;100510.41;;;10.57;100.00
69842;BME280;57138;51.326;-0.068;2022-11-13T03:41:01;100501.34;;;10.58;99.94
69842;BME280;57138;51.326;-0.068;2022-11-13T03:43:29;100499.72;;;10.57;100.00
69842;BME280;57138;51.326;-0.068;2022-11-13T03:45:58;100486.41;;;10.49;100.00
69842;BME280;57138;51.326;-0.068;2022-11-13T03:48:23;100507.72;;;10.57;100.00
69842;BME280;57138;51.326;-0.068;2022-11-13T03:50:52;100498.66;;;10.58;100.00
69842;BME280;57138;51.326;-0.068;2022-11-13T03:53:18;100507.19;;;10.61;100.00
69842;BME280;57138;51.326;-0.068;2022-11-13T03:55:43;100504.31;;;10.63;100.00
69842;BME280;57138;51.326;-0.068;2022-11-13T03:58:10;100509.13;;;10.68;100.00
69842;BME280;57138;51.326;-0.068;2022-11-13T04:00:36;100501.56;;;10.71;100.00
69842;BME280;57138;51.326;-0.068;2022-11-13T04:03:02;100498.25;;;10.69;100.00
69842;BME280;57138;51.326;-0.068;2022-11-13T04:05:28;100497.88;;;10.72;100.00
69842;BME280;57138;51.326;-0.068;2022-11-13T04:07:53;100497.88;;;10.72;100.00
69842;BME280;57138;51.326;-0.068;2022-11-13T04:10:18;100490.03;;;10.71;100.00
69842;BME280;57138;51.326;-0.068;2022-11-13T04:12:44;100490.50;;;10.74;100.00
69842;BME280;57138;51.326;-0.068;2022-11-13T04:15:10;100482.66;;;10.73;100.00
69842;BME280;57138;51.326;-0.068;2022-11-13T04:17:35;100480.16;;;10.71;100.00
69842;BME280;57138;51.326;-0.068;2022-11-13T04:20:04;100474.38;;;10.68;100.00
69842;BME280;57138;51.326;-0.068;2022-11-13T04:22:29;100482.19;;;10.69;100.00
69842;BME280;57138;51.326;-0.068;2022-11-13T04:24:55;100477.69;;;10.70;100.00
69842;BME280;57138;51.326;-0.068;2022-11-13T04:27:20;100473.81;;;10.72;100.00
69842;BME280;57138;51.326;-0.068;2022-11-13T04:29:45;100477.31;;;10.73;100.00
69842;BME280;57138;51.326;-0.068;2022-11-13T04:32:11;100466.97;;;10.70;100.00
69842;BME280;57138;51.326;-0.068;2022-11-13T04:34:36;100476.50;;;10.72;100.00
69842;BME280;57138;51.326;-0.068;2022-11-13T04:37:02;100469.09;;;10.74;100.00
69842;BME280;57138;51.326;-0.068;2022-11-13T04:39:27;100467.44;;;10.73;100.00
69842;BME280;57138;51.326;-0.068;2022-11-13T04:41:53;100463.75;;;10.74;100.00
69842;BME280;57138;51.326;-0.068;2022-11-13T04:44:37;100461.25;;;10.73;100.00
69842;BME280;57138;51.326;-0.068;2022-11-13T04:47:02;100478.13;;;10.73;100.00
69842;BME280;57138;51.326;-0.068;2022-11-13T04:49:28;100475.81;;;10.70;99.90
69842;BME280;57138;51.326;-0.068;2022-11-13T04:51:53;100478.50;;;10.70;100.00
69842;BME280;57138;51.326;-0.068;2022-11-13T04:54:18;100460.81;;;10.69;99.89
69842;BME280;57138;51.326;-0.068;2022-11-13T04:56:44;100456.91;;;10.72;100.00
69842;BME280;57138;51.326;-0.068;2022-11-13T04:59:09;100456.09;;;10.71;99.70
69842;BME280;57138;51.326;-0.068;2022-11-13T05:01:36;100458.41;;;10.74;99.84
69842;BME280;57138;51.326;-0.068;2022-11-13T05:04:02;100449.75;;;10.72;99.85
69842;BME280;57138;51.326;-0.068;2022-11-13T05:06:28;100447.72;;;10.74;99.89
69842;BME280;57138;51.326;-0.068;2022-11-13T05:08:53;100450.38;;;10.74;99.94
69842;BME280;57138;51.326;-0.068;2022-11-13T05:11:19;100439.69;;;10.74;99.58
69842;BME280;57138;51.326;-0.068;2022-11-13T05:13:47;100438.19;;;10.72;99.43
69842;BME280;57138;51.326;-0.068;2022-11-13T05:16:17;100436.38;;;10.72;99.61
69842;BME280;57138;51.326;-0.068;2022-11-13T05:18:43;100432.03;;;10.71;99.50
69842;BME280;57138;51.326;-0.068;2022-11-13T05:21:08;100433.69;;;10.72;99.53
69842;BME280;57138;51.326;-0.068;2022-11-13T05:23:34;100420.03;;;10.67;99.67
69842;BME280;57138;51.326;-0.068;2022-11-13T05:26:01;100427.50;;;10.72;99.28
69842;BME280;57138;51.326;-0.068;2022-11-13T05:28:27;100416.81;;;10.72;99.26
69842;BME280;57138;51.326;-0.068;2022-11-13T05:30:52;100411.63;;;10.70;99.13
69842;BME280;57138;51.326;-0.068;2022-11-13T05:33:18;100389.16;;;10.65;99.31
69842;BME280;57138;51.326;-0.068;2022-11-13T05:35:44;100388.69;;;10.61;98.91
69842;BME280;57138;51.326;-0.068;2022-11-13T05:38:09;100392.56;;;10.58;99.08
69842;BME280;57138;51.326;-0.068;2022-11-13T05:40:35;100388.69;;;10.61;98.99
69842;BME280;57138;51.326;-0.068;2022-11-13T05:43:00;100387.03;;;10.60;99.09
69842;BME280;57138;51.326;-0.068;2022-11-13T05:45:26;100380.38;;;10.56;98.96
69842;BME280;57138;51.326;-0.068;2022-11-13T05:47:51;100382.44;;;10.54;98.83
69842;BME280;57138;51.326;-0.068;2022-11-13T05:50:17;100377.00;;;10.47;98.84
69842;BME280;57138;51.326;-0.068;2022-11-13T05:52:44;100366.66;;;10.44;98.76
69842;BME280;57138;51.326;-0.068;2022-11-13T05:55:10;100367.13;;;10.48;98.59
69842;BME280;57138;51.326;-0.068;2022-11-13T05:57:36;100370.44;;;10.50;98.43
69842;BME280;57138;51.326;-0.068;2022-11-13T06:00:02;100362.41;;;10.50;98.52
69842;BME280;57138;51.326;-0.068;2022-11-13T06:02:28;100363.81;;;10.46;98.47
69842;BME280;57138;51.326;-0.068;2022-11-13T06:04:53;100368.78;;;10.49;98.65
69842;BME280;57138;51.326;-0.068;2022-11-13T06:07:19;100346.84;;;10.38;98.18
69842;BME280;57138;51.326;-0.068;2022-11-13T06:09:44;100358.66;;;10.44;98.43
69842;BME280;57138;51.326;-0.068;2022-11-13T06:12:09;100353.13;;;10.46;98.16
69842;BME280;57138;51.326;-0.068;2022-11-13T06:14:35;100355.13;;;10.43;98.33
69842;BME280;57138;51.326;-0.068;2022-11-13T06:17:00;100349.16;;;10.41;98.11
69842;BME280;57138;51.326;-0.068;2022-11-13T06:19:26;100349.34;;;10.40;98.03
69842;BME280;57138;51.326;-0.068;2022-11-13T06:21:51;100334.84;;;10.34;98.04
69842;BME280;57138;51.326;-0.068;2022-11-13T06:24:16;100338.56;;;10.33;97.80
69842;BME280;57138;51.326;-0.068;2022-11-13T06:26:42;100345.06;;;10.31;97.57
69842;BME280;57138;51.326;-0.068;2022-11-13T06:29:10;100347.91;;;10.29;97.80
69842;BME280;57138;51.326;-0.068;2022-11-13T06:31:36;100353.25;;;10.29;97.48
69842;BME280;57138;51.326;-0.068;2022-11-13T06:34:02;100337.59;;;10.26;97.78
69842;BME280;57138;51.326;-0.068;2022-11-13T06:36:30;100332.78;;;10.21;97.41
69842;BME280;57138;51.326;-0.068;2022-11-13T06:38:56;100342.00;;;10.19;97.19
69842;BME280;57138;51.326;-0.068;2022-11-13T06:41:24;100328.38;;;10.14;97.12
69842;BME280;57138;51.326;-0.068;2022-11-13T06:43:50;100326.16;;;10.02;96.47
69842;BME280;57138;51.326;-0.068;2022-11-13T06:46:18;100338.47;;;10.03;96.77
69842;BME280;57138;51.326;-0.068;2022-11-13T06:48:44;100343.34;;;10.00;96.29
69842;BME280;57138;51.326;-0.068;2022-11-13T06:51:21;100344.94;;;9.94;96.77
69842;BME280;57138;51.326;-0.068;2022-11-13T06:53:47;100340.94;;;9.90;96.48
69842;BME280;57138;51.326;-0.068;2022-11-13T06:56:14;100341.94;;;9.89;96.52
69842;BME280;57138;51.326;-0.068;2022-11-13T06:58:40;100332.00;;;9.83;96.60
69842;BME280;57138;51.326;-0.068;2022-11-13T07:01:14;100335.69;;;9.82;96.64
69842;BME280;57138;51.326;-0.068;2022-11-13T07:03:43;100327.56;;;9.75;96.49
69842;BME280;57138;51.326;-0.068;2022-11-13T07:06:11;100330.03;;;9.77;96.83
69842;BME280;57138;51.326;-0.068;2022-11-13T07:08:41;100328.75;;;9.73;96.36
69842;BME280;57138;51.326;-0.068;2022-11-13T07:11:09;100323.44;;;9.73;96.82
69842;BME280;57138;51.326;-0.068;2022-11-13T07:13:36;100335.75;;;9.74;97.24
69842;BME280;57138;51.326;-0.068;2022-11-13T07:16:05;100319.09;;;9.71;97.32
69842;BME280;57138;51.326;-0.068;2022-11-13T07:18:33;100326.09;;;9.73;96.87
69842;BME280;57138;51.326;-0.068;2022-11-13T07:21:08;100326.09;;;9.73;96.90
69842;BME280;57138;51.326;-0.068;2022-11-13T07:23:36;100322.56;;;9.72;97.10
69842;BME280;57138;51.326;-0.068;2022-11-13T07:26:05;100328.09;;;9.70;96.85
69842;BME280;57138;51.326;-0.068;2022-11-13T07:28:30;100324.78;;;9.68;96.62
69842;BME280;57138;51.326;-0.068;2022-11-13T07:30:57;100339.13;;;9.67;96.78
69842;BME280;57138;51.326;-0.068;2022-11-13T07:33:22;100344.47;;;9.67;96.82
69842;BME280;57138;51.326;-0.068;2022-11-13T07:35:48;100322.56;;;9.57;97.09
69842;BME280;57138;51.326;-0.068;2022-11-13T07:38:14;100346.31;;;9.67;96.95
69842;BME280;57138;51.326;-0.068;2022-11-13T07:40:39;100342.84;;;9.66;96.97
69842;BME280;57138;51.326;-0.068;2022-11-13T07:43:05;100349.44;;;9.70;96.65
69842;BME280;57138;51.326;-0.068;2022-11-13T07:45:30;100355.81;;;9.69;96.60
69842;BME280;57138;51.326;-0.068;2022-11-13T07:47:58;100347.81;;;9.69;96.67
69842;BME280;57138;51.326;-0.068;2022-11-13T07:50:24;100351.13;;;9.71;96.74
69842;BME280;57138;51.326;-0.068;2022-11-13T07:52:57;100352.78;;;9.73;96.78
69842;BME280;57138;51.326;-0.068;2022-11-13T07:55:22;100357.97;;;9.74;96.66
69842;BME280;57138;51.326;-0.068;2022-11-13T07:57:48;100363.75;;;9.78;96.70
69842;BME280;57138;51.326;-0.068;2022-11-13T08:00:14;100368.47;;;9.76;96.56
69842;BME280;57138;51.326;-0.068;2022-11-13T08:02:39;100367.16;;;9.71;96.61
69842;BME280;57138;51.326;-0.068;2022-11-13T08:05:05;100381.81;;;9.76;96.38
69842;BME280;57138;51.326;-0.068;2022-11-13T08:07:30;100369.28;;;9.76;96.69
69842;BME280;57138;51.326;-0.068;2022-11-13T08:09:56;100359.78;;;9.74;96.53
69842;BME280;57138;51.326;-0.068;2022-11-13T08:12:21;100363.56;;;9.79;96.39
69842;BME280;57138;51.326;-0.068;2022-11-13T08:14:47;100357.78;;;9.76;96.51
69842;BME280;57138;51.326;-0.068;2022-11-13T08:17:13;100351.41;;;9.77;96.19
69842;BME280;57138;51.326;-0.068;2022-11-13T08:19:38;100352.25;;;9.77;96.40
69842;BME280;57138;51.326;-0.068;2022-11-13T08:22:03;100348.56;;;9.78;96.31
69842;BME280;57138;51.326;-0.068;2022-11-13T08:24:29;100334.28;;;9.71;96.08
69842;BME280;57138;51.326;-0.068;2022-11-13T08:26:54;100347.09;;;9.76;96.26
69842;BME280;57138;51.326;-0.068;2022-11-13T08:29:19;100340.81;;;9.68;96.47
69842;BME280;57138;51.326;-0.068;2022-11-13T08:31:45;100329.66;;;9.65;96.37
69842;BME280;57138;51.326;-0.068;2022-11-13T08:34:10;100350.75;;;9.75;96.65
69842;BME280;57138;51.326;-0.068;2022-11-13T08:36:35;100348.28;;;9.73;96.53
69842;BME280;57138;51.326;-0.068;2022-11-13T08:39:01;100354.06;;;9.77;96.47
69842;BME280;57138;51.326;-0.068;2022-11-13T08:41:26;100343.94;;;9.72;96.81
69842;BME280;57138;51.326;-0.068;2022-11-13T08:43:52;100336.78;;;9.73;97.06
69842;BME280;57138;51.326;-0.068;2022-11-13T08:46:17;100338.41;;;9.74;96.67
69842;BME280;57138;51.326;-0.068;2022-11-13T08:48:42;100333.75;;;9.76;96.88
69842;BME280;57138;51.326;-0.068;2022-11-13T08:51:08;100327.38;;;9.77;96.72
69842;BME280;57138;51.326;-0.068;2022-11-13T08:53:33;100314.56;;;9.72;97.03
69842;BME280;57138;51.326;-0.068;2022-11-13T08:56:00;100324.44;;;9.71;97.00
69842;BME280;57138;51.326;-0.068;2022-11-13T08:58:26;100316.06;;;9.75;96.85
69842;BME280;57138;51.326;-0.068;2022-11-13T09:00:52;100318.72;;;9.75;97.07
69842;BME280;57138;51.326;-0.068;2022-11-13T09:03:17;100322.69;;;9.79;97.42
69842;BME280;57138;51.326;-0.068;2022-11-13T09:05:42;100316.69;;;9.77;97.26
69842;BME280;57138;51.326;-0.068;2022-11-13T09:08:08;100317.00;;;9.82;97.26
69842;BME280;57138;51.326;-0.068;2022-11-13T09:10:38;100319.78;;;9.88;97.63
69842;BME280;57138;51.326;-0.068;2022-11-13T09:13:05;100315.56;;;9.94;97.33
69842;BME280;57138;51.326;-0.068;2022-11-13T09:15:33;100325.88;;;9.97;97.45
69842;BME280;57138;51.326;-0.068;2022-11-13T09:18:00;100314.16;;;9.98;97.56
69842;BME280;57138;51.326;-0.068;2022-11-13T09:20:28;100319.13;;;10.01;97.05
69842;BME280;57138;51.326;-0.068;2022-11-13T09:23:02;100329.09;;;10.07;97.27
69842;BME280;57138;51.326;-0.068;2022-11-13T09:25:30;100324.38;;;10.10;97.38
69842;BME280;57138;51.326;-0.068;2022-11-13T09:27:59;100318.03;;;10.11;97.59
69842;BME280;57138;51.326;-0.068;2022-11-13T09:30:26;100319.97;;;10.17;97.76
69842;BME280;57138;51.326;-0.068;2022-11-13T09:32:52;100318.63;;;10.21;97.31
69842;BME280;57138;51.326;-0.068;2022-11-13T09:35:20;100319.44;;;10.21;97.46
69842;BME280;57138;51.326;-0.068;2022-11-13T09:40:34;100317.50;;;10.30;97.87
69842;BME280;57138;51.326;-0.068;2022-11-13T09:43:03;100318.81;;;10.34;97.92
69842;BME280;57138;51.326;-0.068;2022-11-13T09:45:31;100317.63;;;10.37;97.52
69842;BME280;57138;51.326;-0.068;2022-11-13T09:48:16;100318.06;;;10.40;97.56
69842;BME280;57138;51.326;-0.068;2022-11-13T09:50:44;100316.06;;;10.42;97.47
69842;BME280;57138;51.326;-0.068;2022-11-13T09:53:13;100321.03;;;10.46;97.55
69842;BME280;57138;51.326;-0.068;2022-11-13T09:55:47;100315.31;;;10.49;97.76
69842;BME280;57138;51.326;-0.068;2022-11-13T09:58:25;100304.91;;;10.54;98.06
69842;BME280;57138;51.326;-0.068;2022-11-13T10:00:52;100304.16;;;10.60;97.85
69842;BME280;57138;51.326;-0.068;2022-11-13T10:03:39;100303.41;;;10.66;97.85
69842;BME280;57138;51.326;-0.068;2022-11-13T10:09:15;100300.81;;;10.73;98.05
69842;BME280;57138;51.326;-0.068;2022-11-13T10:12:09;100299.06;;;10.80;97.87
69842;BME280;57138;51.326;-0.068;2022-11-13T10:14:42;100302.78;;;10.86;98.04
69842;BME280;57138;51.326;-0.068;2022-11-13T10:17:12;100298.56;;;10.91;98.04
69842;BME280;57138;51.326;-0.068;2022-11-13T10:20:03;100301.47;;;10.96;97.88
69842;BME280;57138;51.326;-0.068;2022-11-13T10:22:59;100301.94;;;11.00;97.63
69842;BME280;57138;51.326;-0.068;2022-11-13T10:25:24;100286.53;;;11.02;98.07
69842;BME280;57138;51.326;-0.068;2022-11-13T10:27:55;100288.06;;;11.11;97.89
69842;BME280;57138;51.326;-0.068;2022-11-13T10:30:21;100289.31;;;11.15;97.78
69842;BME280;57138;51.326;-0.068;2022-11-13T10:32:46;100292.28;;;11.21;97.77
69842;BME280;57138;51.326;-0.068;2022-11-13T10:38:24;100293.25;;;11.35;97.99
69842;BME280;57138;51.326;-0.068;2022-11-13T10:41:03;100288.13;;;11.40;97.70
69842;BME280;57138;51.326;-0.068;2022-11-13T10:43:30;100285.25;;;11.41;97.58
69842;BME280;57138;51.326;-0.068;2022-11-13T10:46:01;100280.34;;;11.45;97.49
69842;BME280;57138;51.326;-0.068;2022-11-13T10:48:29;100289.25;;;11.52;97.63
69842;BME280;57138;51.326;-0.068;2022-11-13T10:51:02;100285.19;;;11.56;97.34
69842;BME280;57138;51.326;-0.068;2022-11-13T10:53:37;100280.88;;;11.62;97.55
69842;BME280;57138;51.326;-0.068;2022-11-13T10:56:12;100282.38;;;11.64;97.66
69842;BME280;57138;51.326;-0.068;2022-11-13T10:58:38;100266.28;;;11.64;97.27
69842;BME280;57138;51.326;-0.068;2022-11-13T11:01:14;100265.06;;;11.67;96.85
69842;BME280;57138;51.326;-0.068;2022-11-13T11:03:48;100246.13;;;11.68;97.33
69842;BME280;57138;51.326;-0.068;2022-11-13T11:06:14;100235.84;;;11.72;97.78
69842;BME280;57138;51.326;-0.068;2022-11-13T11:08:39;100242.06;;;11.79;97.73
69842;BME280;57138;51.326;-0.068;2022-11-13T11:11:16;100245.81;;;11.85;97.52
69842;BME280;57138;51.326;-0.068;2022-11-13T11:14:15;100239.66;;;11.84;97.67
69842;BME280;57138;51.326;-0.068;2022-11-13T11:16:43;100238.88;;;11.91;97.39
69842;BME280;57138;51.326;-0.068;2022-11-13T11:19:13;100230.84;;;11.91;96.88
69842;BME280;57138;51.326;-0.068;2022-11-13T11:21:41;100222.63;;;11.92;97.20
69842;BME280;57138;51.326;-0.068;2022-11-13T11:24:23;100213.09;;;11.90;97.33
69842;BME280;57138;51.326;-0.068;2022-11-13T11:27:00;100210.41;;;11.90;97.46
69842;BME280;57138;51.326;-0.068;2022-11-13T11:29:33;100199.56;;;11.98;97.93
69842;BME280;57138;51.326;-0.068;2022-11-13T11:32:17;100203.72;;;12.07;98.08
69842;BME280;57138;51.326;-0.068;2022-11-13T11:34:50;100194.06;;;12.13;98.26
69842;BME280;57138;51.326;-0.068;2022-11-13T11:37:27;100189.56;;;12.20;98.01
69842;BME280;57138;51.326;-0.068;2022-11-13T11:40:00;100200.75;;;12.30;98.39
69842;BME280;57138;51.326;-0.068;2022-11-13T11:45:42;100195.84;;;12.40;97.77
69842;BME280;57138;51.326;-0.068;2022-11-13T11:48:14;100187.16;;;12.38;97.74
69842;BME280;57138;51.326;-0.068;2022-11-13T12:04:37;100147.22;;;12.64;97.74
69842;BME280;57138;51.326;-0.068;2022-11-13T12:09:53;100150.50;;;12.79;98.18
69842;BME280;57138;51.326;-0.068;2022-11-13T12:15:01;100148.88;;;12.91;97.46
69842;BME280;57138;51.326;-0.068;2022-11-13T12:18:12;100141.88;;;13.04;97.47
69842;BME280;57138;51.326;-0.068;2022-11-13T12:23:30;100134.84;;;13.16;97.65
69842;BME280;57138;51.326;-0.068;2022-11-13T12:36:40;100100.53;;;13.52;96.20
69842;BME280;57138;51.326;-0.068;2022-11-13T12:44:49;100087.47;;;13.69;95.16
69842;BME280;57138;51.326;-0.068;2022-11-13T12:47:17;100082.31;;;13.67;95.27
69842;BME280;57138;51.326;-0.068;2022-11-13T12:49:43;100078.56;;;13.75;94.20
69842;BME280;57138;51.326;-0.068;2022-11-13T12:54:40;100069.22;;;13.77;93.85
69842;BME280;57138;51.326;-0.068;2022-11-13T12:59:42;100054.97;;;13.77;93.19
69842;BME280;57138;51.326;-0.068;2022-11-13T13:15:37;100051.91;;;14.12;88.26
69842;BME280;57138;51.326;-0.068;2022-11-13T13:18:11;100055.19;;;14.14;88.63
69842;BME280;57138;51.326;-0.068;2022-11-13T13:21:08;100051.06;;;14.18;88.03
69842;BME280;57138;51.326;-0.068;2022-11-13T13:23:37;100041.50;;;14.22;88.52
69842;BME280;57138;51.326;-0.068;2022-11-13T13:29:00;100050.50;;;14.34;88.17
69842;BME280;57138;51.326;-0.068;2022-11-13T13:31:58;100045.50;;;14.38;87.49
69842;BME280;57138;51.326;-0.068;2022-11-13T13:37:28;100037.63;;;14.43;87.46
69842;BME280;57138;51.326;-0.068;2022-11-13T13:48:01;100030.97;;;14.46;86.69
69842;BME280;57138;51.326;-0.068;2022-11-13T13:50:31;100017.97;;;14.43;85.75
69842;BME280;57138;51.326;-0.068;2022-11-13T13:52:58;100016.13;;;14.43;85.37
69842;BME280;57138;51.326;-0.068;2022-11-13T13:55:32;100016.13;;;14.43;84.43
69842;BME280;57138;51.326;-0.068;2022-11-13T13:58:02;100010.97;;;14.42;84.63
69842;BME280;57138;51.326;-0.068;2022-11-13T14:00:28;100014.69;;;14.41;84.29
69842;BME280;57138;51.326;-0.068;2022-11-13T14:02:54;100014.09;;;14.38;84.21
69842;BME280;57138;51.326;-0.068;2022-11-13T14:05:24;100002.69;;;14.36;84.58
69842;BME280;57138;51.326;-0.068;2022-11-13T14:07:50;99996.34;;;14.31;84.37
69842;BME280;57138;51.326;-0.068;2022-11-13T14:10:23;99990.56;;;14.27;84.54